This is the latest recevied weather packets stored in our database for station/object 9A3XK-13. If no packets are shown the sender has not sent any weather packets the latest 10 day(s).
| Time | Temp. | Humidity | Pressure | Rain* | Wind** | Luminosity | Snow |
|---|---|---|---|---|---|---|---|
| 1777674017 | 10° C | 68% | 1024.4 hPa | 0 mm | - | 0 W/m² | - |
| 1777673717 | 10° C | 67% | 1024.4 hPa | 0 mm | - | 0 W/m² | - |
| 1777673417 | 10° C | 66% | 1024.4 hPa | 0 mm | - | 0 W/m² | - |
| 1777673117 | 10° C | 66% | 1024.3 hPa | 0 mm | - | 0 W/m² | - |
| 1777671318 | 10° C | 64% | 1024.4 hPa | 0 mm | - | 0 W/m² | - |
| 1777670716 | 10° C | 64% | 1024.2 hPa | 0 mm | - | 0 W/m² | - |
| 1777670416 | 10° C | 63% | 1024.3 hPa | 0 mm | - | 0 W/m² | - |
| 1777669817 | 10° C | 64% | 1024.3 hPa | 0 mm | - | 0 W/m² | - |
| 1777667116 | 11.11° C | 60% | 1024.2 hPa | 0 mm | - | 0 W/m² | - |
| 1777666517 | 11.67° C | 58% | 1024.2 hPa | 0 mm | - | 0 W/m² | - |
| 1777666216 | 11.67° C | 58% | 1024.2 hPa | 0 mm | - | 0 W/m² | - |
| 1777665316 | 12.22° C | 56% | 1024.2 hPa | 0 mm | - | 0 W/m² | - |
| 1777664116 | 12.78° C | 54% | 1024.2 hPa | 0 mm | - | 0 W/m² | - |
| 1777662316 | 13.89° C | 50% | 1024 hPa | 0 mm | - | 0 W/m² | - |
| 1777661716 | 13.89° C | 48% | 1024 hPa | 0 mm | - | 0 W/m² | - |
| 1777661116 | 13.89° C | 48% | 1023.9 hPa | 0 mm | - | 0 W/m² | - |
| 1777660816 | 13.89° C | 49% | 1023.9 hPa | 0 mm | - | 0 W/m² | - |
| 1777660516 | 14.44° C | 48% | 1023.9 hPa | 0 mm | - | 0 W/m² | - |
| 1777660216 | 14.44° C | 47% | 1023.9 hPa | 0 mm | - | 0 W/m² | - |
| 1777659616 | 14.44° C | 47% | 1023.8 hPa | 0 mm | - | 0 W/m² | - |
| 1777659316 | 14.44° C | 46% | 1023.8 hPa | 0 mm | - | 0 W/m² | - |
| 1777659016 | 15° C | 45% | 1023.8 hPa | 0 mm | - | 0 W/m² | - |
| 1777658416 | 15° C | 43% | 1023.7 hPa | 0 mm | - | 0 W/m² | - |
| 1777657216 | 15.56° C | 40% | 1023.6 hPa | 0 mm | - | 11 W/m² | - |
| 1777656916 | 15.56° C | 40% | 1023.5 hPa | 0 mm | - | 13 W/m² | - |
* Rain latest hour (hover to see other rain measurements)
** Current wind speed in m/s (hover to see current wind gust speed)